Time;durP1;ratioP1;P1;durP2;ratioP2;P2;SDS_P1;SDS_P2;PMS_P1;PMS_P2;Temp;Humidity;BMP_temperature;BMP_pressure;BME280_temperature;BME280_humidity;BME280_pressure;Samples;Min_cycle;Max_cycle;Signal;HPM_P1;HPM_P2
2023/06/05 00:01:06;;;;;;;5.28;3.50;;;12.70;99.90;;;;;;5030045;28;20439;-82
2023/06/05 00:03:32;;;;;;;3.30;2.90;;;12.70;99.90;;;;;;5030106;28;20038;-82
2023/06/05 00:05:57;;;;;;;5.30;2.88;;;12.70;99.90;;;;;;5046660;28;20034;-82
2023/06/05 00:08:23;;;;;;;3.92;3.13;;;12.60;99.90;;;;;;5030113;28;20029;-82
2023/06/05 00:10:48;;;;;;;3.75;2.90;;;12.70;99.90;;;;;;5029962;28;20512;-82
2023/06/05 00:13:15;;;;;;;5.68;3.50;;;12.70;99.90;;;;;;5030299;28;20045;-82
2023/06/05 00:15:40;;;;;;;5.20;2.95;;;12.70;99.90;;;;;;5009766;28;20409;-82
2023/06/05 00:18:06;;;;;;;5.93;3.00;;;12.60;99.90;;;;;;5029464;28;20037;-82
2023/06/05 00:20:32;;;;;;;5.05;3.30;;;12.60;99.90;;;;;;5029805;28;20091;-82
2023/06/05 00:22:57;;;;;;;4.00;2.90;;;12.60;99.90;;;;;;5047023;28;20037;-82
2023/06/05 00:25:24;;;;;;;4.63;3.25;;;12.60;99.90;;;;;;5030070;28;20116;-82
2023/06/05 00:27:49;;;;;;;4.00;2.88;;;12.60;99.90;;;;;;5028700;28;20069;-81
2023/06/05 00:30:15;;;;;;;4.93;2.80;;;12.60;99.90;;;;;;5029715;28;20131;-81
2023/06/05 00:32:42;;;;;;;4.88;3.20;;;12.60;99.90;;;;;;5031019;28;20095;-81
2023/06/05 00:35:08;;;;;;;6.43;3.17;;;12.40;99.90;;;;;;5030540;28;20519;-81
2023/06/05 00:37:33;;;;;;;4.05;2.95;;;12.50;99.90;;;;;;5029666;28;20517;-82
2023/06/05 00:40:00;;;;;;;4.95;3.15;;;12.50;99.90;;;;;;5030066;28;20038;-81
2023/06/05 00:42:28;;;;;;;5.30;3.28;;;12.50;99.90;;;;;;5013690;28;20551;-81
2023/06/05 00:44:54;;;;;;;4.32;3.15;;;12.50;99.90;;;;;;5029511;28;20493;-81
2023/06/05 00:47:20;;;;;;;6.18;3.20;;;12.50;99.90;;;;;;5030832;28;20034;-81
2023/06/05 00:49:46;;;;;;;6.43;3.67;;;12.50;99.90;;;;;;5030781;28;20052;-81
2023/06/05 00:52:11;;;;;;;4.75;3.30;;;12.50;99.90;;;;;;5030346;28;20464;-81
2023/06/05 00:54:38;;;;;;;4.53;3.03;;;12.50;99.90;;;;;;5029422;28;20075;-82
2023/06/05 00:57:04;;;;;;;6.63;3.90;;;12.50;99.90;;;;;;5031094;28;20045;-81
2023/06/05 00:59:31;;;;;;;4.28;3.53;;;12.50;99.90;;;;;;5029859;28;20112;-81
2023/06/05 01:01:58;;;;;;;4.97;3.42;;;12.60;99.90;;;;;;5029218;28;20033;-82
2023/06/05 01:04:23;;;;;;;5.70;3.92;;;12.70;99.90;;;;;;5030114;28;20040;-81
2023/06/05 01:06:51;;;;;;;5.68;3.45;;;12.70;99.90;;;;;;5030418;28;20025;-82
2023/06/05 01:09:18;;;;;;;5.85;3.50;;;12.70;99.90;;;;;;5047325;28;20048;-81
2023/06/05 01:11:46;;;;;;;4.93;3.60;;;12.80;99.90;;;;;;5029635;28;20041;-81
2023/06/05 01:14:22;;;;;;;5.78;4.10;;;12.80;99.90;;;;;;5013433;28;20049;-82
2023/06/05 01:16:50;;;;;;;5.22;3.85;;;12.90;99.90;;;;;;5029313;28;20045;-81
2023/06/05 01:19:17;;;;;;;5.80;4.20;;;12.90;99.90;;;;;;5029522;28;20102;-81
2023/06/05 01:21:43;;;;;;;5.45;4.10;;;12.90;99.90;;;;;;5029687;28;20042;-81
2023/06/05 01:24:08;;;;;;;5.32;4.20;;;12.90;99.90;;;;;;5030114;28;20045;-82
2023/06/05 01:26:52;;;;;;;8.75;4.53;;;12.90;99.90;;;;;;5029977;28;20033;-82
2023/06/05 01:29:25;;;;;;;7.15;4.90;;;12.90;99.90;;;;;;5030219;28;20037;-81
2023/06/05 01:31:57;;;;;;;6.20;4.28;;;12.90;99.90;;;;;;5030107;28;20464;-81
2023/06/05 01:34:26;;;;;;;7.38;4.85;;;12.90;99.90;;;;;;5029789;28;20045;-81
2023/06/05 01:36:54;;;;;;;6.78;5.00;;;12.90;99.90;;;;;;5028478;28;20033;-81
2023/06/05 01:39:22;;;;;;;6.00;4.43;;;12.90;99.90;;;;;;5030187;28;20037;-81
2023/06/05 01:41:49;;;;;;;6.90;4.72;;;12.90;99.90;;;;;;5029312;28;20041;-82
2023/06/05 01:44:17;;;;;;;6.75;5.00;;;12.90;99.90;;;;;;5030354;28;20052;-84
2023/06/05 01:46:43;;;;;;;7.32;4.65;;;12.90;99.90;;;;;;5025686;28;20072;-82
2023/06/05 01:49:10;;;;;;;7.50;5.05;;;13.00;99.90;;;;;;5029543;28;20499;-81
2023/06/05 01:51:36;;;;;;;6.45;4.25;;;13.00;99.90;;;;;;5029712;28;20072;-82
2023/06/05 01:54:01;;;;;;;8.10;4.70;;;12.90;99.90;;;;;;5020386;28;20076;-81
2023/06/05 01:56:27;;;;;;;7.43;4.88;;;12.90;99.90;;;;;;5011592;28;20473;-81
2023/06/05 01:58:53;;;;;;;7.65;4.95;;;12.90;99.90;;;;;;5028741;28;20048;-82
2023/06/05 02:01:22;;;;;;;5.30;4.47;;;12.90;99.90;;;;;;5028968;28;20128;-82
2023/06/05 02:03:49;;;;;;;8.07;4.82;;;12.80;99.90;;;;;;5013196;28;20110;-82
2023/06/05 02:06:16;;;;;;;7.60;4.68;;;12.80;99.90;;;;;;5045913;28;20051;-82
2023/06/05 02:08:42;;;;;;;8.02;4.85;;;12.70;99.90;;;;;;5029026;28;20417;-82
2023/06/05 02:11:10;;;;;;;7.55;4.97;;;12.70;99.90;;;;;;5029346;28;20033;-81
2023/06/05 02:13:40;;;;;;;7.03;4.65;;;12.80;99.90;;;;;;5029300;28;20522;-81
2023/06/05 02:16:09;;;;;;;6.32;4.43;;;12.70;99.90;;;;;;5029927;28;20029;-82
2023/06/05 02:18:37;;;;;;;6.68;4.75;;;12.80;99.90;;;;;;5029448;28;20446;-82
2023/06/05 02:21:03;;;;;;;10.13;4.38;;;12.80;99.90;;;;;;5029431;28;20060;-82
2023/06/05 02:23:28;;;;;;;6.63;4.90;;;12.80;99.90;;;;;;5027817;28;20049;-82
2023/06/05 02:25:54;;;;;;;6.88;4.70;;;12.80;99.90;;;;;;5029806;28;20033;-81
2023/06/05 02:28:20;;;;;;;7.85;5.22;;;12.80;99.90;;;;;;5047964;28;20033;-81
2023/06/05 02:30:47;;;;;;;5.80;4.85;;;12.80;99.90;;;;;;5030116;28;20083;-82
2023/06/05 02:33:14;;;;;;;6.53;5.03;;;12.80;99.90;;;;;;5044648;28;20037;-81
2023/06/05 02:35:40;;;;;;;7.78;5.00;;;12.80;99.90;;;;;;5048107;28;20041;-82
2023/06/05 02:38:08;;;;;;;6.15;5.03;;;12.80;99.90;;;;;;5032410;28;20053;-82
2023/06/05 02:40:33;;;;;;;8.80;5.07;;;12.80;99.90;;;;;;5031482;28;20562;-83
2023/06/05 02:43:00;;;;;;;7.72;5.00;;;12.80;99.90;;;;;;5032040;28;20040;-83
2023/06/05 02:45:25;;;;;;;8.18;4.90;;;12.90;99.90;;;;;;5015724;28;20508;-81
2023/06/05 02:47:51;;;;;;;9.27;5.05;;;12.90;99.90;;;;;;5026734;28;20037;-82
2023/06/05 02:50:16;;;;;;;7.70;4.97;;;12.90;99.90;;;;;;5033129;28;20109;-82
2023/06/05 02:52:42;;;;;;;8.23;5.40;;;12.90;99.90;;;;;;5032563;28;20056;-82
2023/06/05 02:55:08;;;;;;;8.35;4.90;;;12.90;99.90;;;;;;5031418;28;20049;-81
2023/06/05 02:57:40;;;;;;;7.20;4.82;;;12.90;99.90;;;;;;5031547;28;20037;-82
2023/06/05 03:00:16;;;;;;;7.63;4.80;;;12.90;99.90;;;;;;5032265;28;20044;-82
2023/06/05 03:02:48;;;;;;;9.52;5.32;;;12.80;99.90;;;;;;5031451;28;20112;-81
2023/06/05 03:05:14;;;;;;;6.90;5.65;;;12.90;99.90;;;;;;5030625;28;20157;-81
2023/06/05 03:07:40;;;;;;;10.50;5.43;;;12.90;99.90;;;;;;5032460;28;20044;-82
2023/06/05 03:10:07;;;;;;;9.05;5.75;;;12.90;99.90;;;;;;5032101;28;20041;-82
2023/06/05 03:12:33;;;;;;;6.65;4.90;;;12.90;99.90;;;;;;5031181;28;20087;-82
2023/06/05 03:14:58;;;;;;;7.70;5.45;;;12.90;99.90;;;;;;5031528;28;20072;-82
2023/06/05 03:17:24;;;;;;;6.28;4.90;;;12.80;99.90;;;;;;5015641;28;20408;-82
2023/06/05 03:19:50;;;;;;;8.48;5.38;;;12.80;99.90;;;;;;5032095;28;20038;-82
2023/06/05 03:22:17;;;;;;;6.68;5.32;;;12.80;99.90;;;;;;5031800;28;20076;-81
2023/06/05 03:24:43;;;;;;;8.25;4.95;;;12.80;99.90;;;;;;5033135;28;20397;-81
2023/06/05 03:27:09;;;;;;;8.65;5.15;;;12.80;99.90;;;;;;5032877;28;20026;-81
2023/06/05 03:29:34;;;;;;;5.93;4.90;;;12.70;99.90;;;;;;5049002;28;20088;-81
2023/06/05 03:32:00;;;;;;;7.68;5.10;;;12.70;99.90;;;;;;5021617;28;20444;-81
2023/06/05 03:34:26;;;;;;;7.53;5.28;;;12.70;99.90;;;;;;5024016;28;20508;-81
2023/06/05 03:36:58;;;;;;;8.63;4.60;;;12.70;99.90;;;;;;5048855;28;20052;-81
2023/06/05 03:39:25;;;;;;;6.43;4.53;;;12.60;99.90;;;;;;5030600;28;20073;-81
2023/06/05 03:41:50;;;;;;;6.35;4.88;;;12.70;99.90;;;;;;5030453;28;20068;-81
2023/06/05 03:44:16;;;;;;;6.32;4.70;;;12.60;99.90;;;;;;5031835;28;20041;-81
2023/06/05 03:46:41;;;;;;;8.43;5.03;;;12.60;99.90;;;;;;5031625;28;20072;-81
2023/06/05 03:49:09;;;;;;;6.85;5.10;;;12.60;99.90;;;;;;5031346;28;20156;-82
2023/06/05 03:51:35;;;;;;;6.65;4.38;;;12.60;99.90;;;;;;5031233;28;20105;-81
2023/06/05 03:54:01;;;;;;;5.53;4.10;;;12.60;99.90;;;;;;5031476;28;20056;-81
2023/06/05 03:56:34;;;;;;;6.07;4.00;;;12.60;99.90;;;;;;5023744;28;20103;-81
2023/06/05 03:59:08;;;;;;;5.47;4.20;;;12.60;99.90;;;;;;5031204;28;20523;-82
2023/06/05 04:01:37;;;;;;;7.10;4.40;;;12.60;99.90;;;;;;5028933;28;20049;-82
2023/06/05 04:04:05;;;;;;;7.15;3.75;;;12.60;99.90;;;;;;5027285;28;20041;-81
2023/06/05 04:06:32;;;;;;;7.60;4.10;;;12.60;99.90;;;;;;5031649;28;20044;-81
2023/06/05 04:08:58;;;;;;;6.15;3.95;;;12.70;99.90;;;;;;5031362;28;20037;-81
2023/06/05 04:11:26;;;;;;;7.50;4.60;;;12.70;99.90;;;;;;5030737;28;20470;-82
2023/06/05 04:13:53;;;;;;;5.68;4.13;;;12.70;99.90;;;;;;5028780;28;20124;-82
2023/06/05 04:16:18;;;;;;;6.03;4.50;;;12.80;99.90;;;;;;5032147;28;20048;-82
2023/06/05 04:18:44;;;;;;;6.80;4.15;;;12.80;99.90;;;;;;5048836;28;20034;-82
2023/06/05 04:21:10;;;;;;;7.20;4.40;;;12.80;99.90;;;;;;5030206;28;20041;-82
2023/06/05 04:23:36;;;;;;;6.22;3.70;;;12.80;99.90;;;;;;5030421;28;20100;-82
2023/06/05 04:26:02;;;;;;;6.03;4.18;;;12.90;99.90;;;;;;5029422;28;20065;-82
2023/06/05 04:28:29;;;;;;;5.68;4.47;;;12.90;99.90;;;;;;5029650;28;20069;-82
2023/06/05 04:30:55;;;;;;;4.72;4.20;;;13.00;99.90;;;;;;5013672;28;20037;-81
2023/06/05 04:33:21;;;;;;;6.80;3.75;;;13.00;99.90;;;;;;5029840;28;20041;-82
2023/06/05 04:35:46;;;;;;;7.13;3.92;;;13.10;99.90;;;;;;5031145;28;20036;-82
2023/06/05 04:38:12;;;;;;;5.53;3.83;;;13.10;99.90;;;;;;5029505;28;20128;-82
2023/06/05 04:40:38;;;;;;;5.80;3.67;;;13.10;99.90;;;;;;5030050;28;20167;-81
2023/06/05 04:43:03;;;;;;;6.10;3.50;;;13.10;99.90;;;;;;5029678;28;20041;-82
2023/06/05 04:45:29;;;;;;;5.30;3.45;;;13.10;99.90;;;;;;5047132;28;20497;-81
2023/06/05 04:47:55;;;;;;;4.03;3.13;;;13.10;99.90;;;;;;5030641;28;20033;-81
2023/06/05 04:50:26;;;;;;;5.25;3.42;;;13.10;99.90;;;;;;5030725;28;20041;-81
2023/06/05 04:52:53;;;;;;;6.25;3.33;;;13.10;99.90;;;;;;5030034;28;20037;-81
2023/06/05 04:55:19;;;;;;;5.07;3.50;;;13.20;99.90;;;;;;5030970;28;20504;-81
2023/06/05 04:57:45;;;;;;;3.70;3.10;;;13.10;99.90;;;;;;5031498;28;20038;-82
2023/06/05 05:00:12;;;;;;;6.72;3.65;;;13.10;99.90;;;;;;5030854;28;20040;-81
2023/06/05 05:02:37;;;;;;;4.72;2.83;;;13.20;99.90;;;;;;5013383;28;20091;-81
2023/06/05 05:05:04;;;;;;;5.47;3.17;;;13.20;99.90;;;;;;5014233;28;20037;-81
2023/06/05 05:07:29;;;;;;;3.55;2.90;;;13.30;99.90;;;;;;5031126;28;20408;-81
2023/06/05 05:09:55;;;;;;;4.13;3.05;;;13.40;99.90;;;;;;5030475;28;20041;-82
2023/06/05 05:12:21;;;;;;;4.50;3.08;;;13.40;99.90;;;;;;5029149;28;20045;-81
2023/06/05 05:14:46;;;;;;;6.80;3.10;;;13.40;99.90;;;;;;5048614;28;20064;-82
2023/06/05 05:17:14;;;;;;;3.70;2.67;;;13.50;99.90;;;;;;5030879;28;20033;-80
2023/06/05 05:19:40;;;;;;;3.88;2.60;;;13.60;99.90;;;;;;5030409;28;20041;-80
2023/06/05 05:22:06;;;;;;;3.20;2.53;;;13.60;99.90;;;;;;5029953;28;20037;-80
2023/06/05 05:24:32;;;;;;;3.80;2.45;;;13.60;99.90;;;;;;5013866;28;20033;-81
2023/06/05 05:26:57;;;;;;;3.28;2.45;;;13.70;99.90;;;;;;5046730;28;20044;-83
2023/06/05 05:29:23;;;;;;;4.50;2.42;;;13.70;99.90;;;;;;5029960;28;20085;-81
2023/06/05 05:31:48;;;;;;;3.05;2.40;;;13.60;99.90;;;;;;5030166;28;20048;-82
2023/06/05 05:34:14;;;;;;;3.63;2.80;;;13.60;99.90;;;;;;5033118;28;20041;-81
2023/06/05 05:36:39;;;;;;;3.50;2.10;;;13.60;99.90;;;;;;5030157;28;20037;-80
2023/06/05 05:39:07;;;;;;;4.28;2.10;;;13.70;99.90;;;;;;5029162;28;20505;-81
2023/06/05 05:41:33;;;;;;;3.50;2.17;;;13.80;99.90;;;;;;5003610;28;20038;-80
2023/06/05 05:43:58;;;;;;;3.05;2.20;;;13.80;99.90;;;;;;5026948;28;20374;-80
2023/06/05 05:46:24;;;;;;;2.85;2.10;;;13.90;99.90;;;;;;5029706;28;20521;-80
2023/06/05 05:48:51;;;;;;;3.70;2.25;;;13.90;99.90;;;;;;5029298;28;20033;-80
2023/06/05 05:51:16;;;;;;;3.08;2.13;;;13.90;99.90;;;;;;5027949;28;20124;-80
2023/06/05 05:53:42;;;;;;;2.30;1.75;;;14.00;99.90;;;;;;5027591;28;20080;-79
2023/06/05 05:56:08;;;;;;;3.63;2.10;;;14.00;99.90;;;;;;5028533;28;20041;-80
2023/06/05 05:58:33;;;;;;;2.97;2.00;;;14.10;99.90;;;;;;5027152;28;20065;-79
2023/06/05 06:01:00;;;;;;;3.17;2.15;;;14.20;99.90;;;;;;5028564;28;20390;-82
2023/06/05 06:03:29;;;;;;;3.55;2.00;;;14.20;99.90;;;;;;5015852;28;20549;-79
2023/06/05 06:05:56;;;;;;;2.60;2.00;;;14.20;99.90;;;;;;5034059;28;20258;-79
2023/06/05 06:08:22;;;;;;;2.97;2.17;;;14.20;99.90;;;;;;5033461;28;20045;-79
2023/06/05 06:10:47;;;;;;;2.42;1.80;;;14.20;99.90;;;;;;5034918;28;20041;-80
2023/06/05 06:13:13;;;;;;;7.50;2.30;;;14.20;99.90;;;;;;5033537;28;20048;-81
2023/06/05 06:15:39;;;;;;;2.63;1.92;;;14.20;99.90;;;;;;5032765;28;20037;-81
2023/06/05 06:18:05;;;;;;;4.05;2.00;;;14.30;99.90;;;;;;5032158;28;20041;-80
2023/06/05 06:20:33;;;;;;;2.55;1.60;;;14.40;99.90;;;;;;5033494;28;20416;-80
2023/06/05 06:22:59;;;;;;;2.72;1.88;;;14.50;99.90;;;;;;5034001;28;20037;-81
2023/06/05 06:25:28;;;;;;;2.47;1.88;;;14.60;99.90;;;;;;5033803;28;20038;-82
2023/06/05 06:27:54;;;;;;;3.30;1.85;;;14.50;99.90;;;;;;5033859;28;20118;-83
2023/06/05 06:30:21;;;;;;;3.28;1.83;;;14.30;99.90;;;;;;5033410;28;20052;-83
2023/06/05 06:32:47;;;;;;;2.45;2.00;;;14.20;99.90;;;;;;5030637;28;20528;-79
2023/06/05 06:35:15;;;;;;;3.13;1.90;;;14.10;99.90;;;;;;5030279;28;20033;-79
2023/06/05 06:37:42;;;;;;;2.83;1.92;;;14.10;99.90;;;;;;5029863;28;20041;-79
2023/06/05 06:40:10;;;;;;;3.05;1.90;;;14.30;99.90;;;;;;5031942;28;20033;-80
2023/06/05 06:42:37;;;;;;;2.47;1.98;;;14.60;99.90;;;;;;5034616;28;20089;-80
2023/06/05 06:45:04;;;;;;;5.43;2.03;;;14.90;99.90;;;;;;5026686;28;20588;-80
2023/06/05 06:47:30;;;;;;;5.05;1.90;;;15.10;99.90;;;;;;5031211;28;20041;-80
2023/06/05 06:49:56;;;;;;;2.15;1.80;;;15.40;99.90;;;;;;5017483;28;20034;-80
2023/06/05 06:52:22;;;;;;;3.58;1.83;;;15.40;99.90;;;;;;5022834;28;20096;-80
2023/06/05 06:54:48;;;;;;;2.83;1.90;;;15.70;99.90;;;;;;5015400;28;20042;-77
2023/06/05 06:57:13;;;;;;;4.45;1.85;;;15.80;99.90;;;;;;5017982;28;20044;-80
2023/06/05 06:59:40;;;;;;;4.10;1.85;;;15.90;99.90;;;;;;5030582;28;20040;-79
2023/06/05 07:02:17;;;;;;;3.47;1.90;;;16.10;99.90;;;;;;5030261;28;20045;-79
2023/06/05 07:04:44;;;;;;;2.95;2.17;;;16.30;99.90;;;;;;5021464;28;20412;-79
2023/06/05 07:07:12;;;;;;;3.17;2.22;;;16.30;99.90;;;;;;5022089;28;20048;-79
2023/06/05 07:09:38;;;;;;;2.85;2.20;;;16.40;99.90;;;;;;5017532;28;20069;-79
2023/06/05 07:12:07;;;;;;;2.88;2.30;;;16.50;99.90;;;;;;5013047;28;20041;-78
2023/06/05 07:14:35;;;;;;;3.58;2.13;;;16.60;99.90;;;;;;5024388;28;20048;-78
2023/06/05 07:17:04;;;;;;;4.40;2.00;;;16.60;99.90;;;;;;5008154;28;20080;-79
2023/06/05 07:19:31;;;;;;;5.70;2.45;;;16.80;99.90;;;;;;5020178;28;20041;-77
2023/06/05 07:21:57;;;;;;;2.88;2.15;;;16.90;99.90;;;;;;5024942;28;20077;-79
2023/06/05 07:24:28;;;;;;;5.95;2.15;;;17.10;99.90;;;;;;5027907;28;20034;-80
2023/06/05 07:27:01;;;;;;;4.63;2.10;;;17.10;99.90;;;;;;5028757;28;20038;-80
2023/06/05 07:29:27;;;;;;;2.42;1.90;;;17.30;99.90;;;;;;5029729;28;20086;-82
2023/06/05 07:31:55;;;;;;;3.83;2.58;;;17.30;99.90;;;;;;5024656;28;20113;-80
2023/06/05 07:34:22;;;;;;;3.50;2.45;;;17.50;99.90;;;;;;5029114;28;20060;-79
2023/06/05 07:36:49;;;;;;;3.97;2.10;;;17.60;99.90;;;;;;5033118;28;20068;-80
2023/06/05 07:39:16;;;;;;;4.25;2.08;;;17.70;99.90;;;;;;5025971;28;20041;-79
2023/06/05 07:41:42;;;;;;;3.88;2.28;;;17.80;99.90;;;;;;5029754;28;20048;-80
2023/06/05 07:44:10;;;;;;;3.63;2.17;;;17.90;99.90;;;;;;5024064;28;20025;-80
2023/06/05 07:46:36;;;;;;;3.33;2.13;;;17.90;99.90;;;;;;5031348;28;20071;-80
2023/06/05 07:49:01;;;;;;;5.93;2.20;;;17.90;99.90;;;;;;5029393;28;20048;-80
2023/06/05 07:51:27;;;;;;;3.67;2.03;;;17.80;99.90;;;;;;5033336;28;20034;-80
2023/06/05 07:53:52;;;;;;;3.45;2.08;;;17.70;99.90;;;;;;5030989;28;20037;-81
2023/06/05 07:56:18;;;;;;;2.97;1.95;;;17.60;99.90;;;;;;5029909;28;20381;-79
2023/06/05 07:58:43;;;;;;;4.03;2.17;;;17.50;99.90;;;;;;5031940;28;20525;-80
2023/06/05 08:01:11;;;;;;;4.85;2.40;;;17.60;99.90;;;;;;5048963;28;20029;-81
2023/06/05 08:03:37;;;;;;;4.05;2.65;;;17.60;99.90;;;;;;5014418;28;20041;-81
2023/06/05 08:06:03;;;;;;;5.93;2.53;;;17.70;99.90;;;;;;5025631;28;20037;-80
2023/06/05 08:08:29;;;;;;;2.92;2.30;;;17.10;99.90;;;;;;5043877;28;20061;-81
2023/06/05 08:10:55;;;;;;;6.13;3.15;;;16.70;99.90;;;;;;5028882;28;20369;-80
2023/06/05 08:13:21;;;;;;;2.80;2.30;;;16.40;99.90;;;;;;5025799;28;20048;-79
2023/06/05 08:15:47;;;;;;;3.83;2.90;;;16.80;99.90;;;;;;5047945;28;20037;-78
2023/06/05 08:18:14;;;;;;;3.58;2.45;;;17.20;99.90;;;;;;5019506;28;20045;-79
2023/06/05 08:20:40;;;;;;;3.42;2.50;;;17.40;99.90;;;;;;5046956;28;20580;-78
2023/06/05 08:23:05;;;;;;;4.75;2.58;;;17.50;99.90;;;;;;5025830;28;20120;-79
2023/06/05 08:25:31;;;;;;;3.83;2.45;;;17.30;99.90;;;;;;5016296;28;20067;-79
2023/06/05 08:27:56;;;;;;;4.03;2.53;;;17.20;99.90;;;;;;5043760;28;20489;-79
2023/06/05 08:30:22;;;;;;;3.20;2.20;;;16.90;99.90;;;;;;5042776;28;20095;-79
2023/06/05 08:32:47;;;;;;;3.90;2.45;;;17.10;99.90;;;;;;5025876;28;20049;-77
2023/06/05 08:35:13;;;;;;;4.35;2.92;;;17.40;99.90;;;;;;5007145;28;20102;-77
2023/06/05 08:37:40;;;;;;;3.65;2.30;;;17.70;99.90;;;;;;5016168;28;20373;-77
2023/06/05 08:40:08;;;;;;;3.97;2.22;;;17.90;99.90;;;;;;5025684;28;20412;-78
2023/06/05 08:42:33;;;;;;;4.75;2.33;;;18.00;99.90;;;;;;5023961;28;20046;-79
2023/06/05 08:44:59;;;;;;;4.65;2.70;;;18.20;99.90;;;;;;5029690;28;20034;-78
2023/06/05 08:47:28;;;;;;;4.63;2.50;;;18.00;99.90;;;;;;5030358;28;20037;-78
2023/06/05 08:49:54;;;;;;;5.05;2.85;;;18.20;99.90;;;;;;5031845;28;20112;-79
2023/06/05 08:52:22;;;;;;;3.67;2.45;;;17.90;99.90;;;;;;5030400;28;20041;-79
2023/06/05 08:54:49;;;;;;;4.00;2.55;;;17.70;99.90;;;;;;5030441;28;20165;-77
2023/06/05 08:57:15;;;;;;;5.07;2.75;;;17.40;99.90;;;;;;5030894;28;20046;-79
2023/06/05 08:59:43;;;;;;;4.10;2.60;;;17.30;99.90;;;;;;5031075;28;20124;-78
2023/06/05 09:02:09;;;;;;;5.05;2.80;;;17.20;99.90;;;;;;5029816;28;20064;-78
2023/06/05 09:04:35;;;;;;;4.30;2.70;;;17.20;99.90;;;;;;5047004;28;20492;-77
2023/06/05 09:07:01;;;;;;;3.85;2.58;;;17.30;99.90;;;;;;5029736;28;20037;-78
2023/06/05 09:09:27;;;;;;;4.75;2.85;;;17.50;99.90;;;;;;5023956;28;20120;-77
2023/06/05 09:12:02;;;;;;;5.60;3.20;;;17.80;99.90;;;;;;5022623;28;20125;-78
2023/06/05 09:14:28;;;;;;;4.95;3.20;;;17.60;99.90;;;;;;5010217;28;20042;-77
2023/06/05 09:16:54;;;;;;;4.30;3.60;;;17.40;99.90;;;;;;5029160;28;20048;-79
2023/06/05 09:19:27;;;;;;;3.88;2.60;;;17.30;99.90;;;;;;5029801;28;20121;-78
2023/06/05 09:21:54;;;;;;;4.43;3.20;;;17.20;99.90;;;;;;5029262;28;20500;-76
2023/06/05 09:24:22;;;;;;;4.13;2.60;;;17.40;99.90;;;;;;5029502;28;20033;-78
2023/06/05 09:26:59;;;;;;;5.25;3.00;;;17.60;99.90;;;;;;5029557;28;20033;-77
2023/06/05 09:29:45;;;;;;;4.10;3.03;;;17.80;99.90;;;;;;5025240;28;20069;-77
2023/06/05 09:32:14;;;;;;;8.13;3.33;;;17.70;99.90;;;;;;5040496;28;20034;-78
2023/06/05 09:34:41;;;;;;;5.38;3.25;;;17.80;99.90;;;;;;5029518;28;20116;-77
2023/06/05 09:37:08;;;;;;;4.65;3.30;;;17.60;99.90;;;;;;5031705;28;20033;-77
2023/06/05 09:39:35;;;;;;;4.32;3.45;;;17.80;99.90;;;;;;5033676;28;20462;-77
2023/06/05 09:42:01;;;;;;;3.90;3.03;;;17.70;99.90;;;;;;5016580;28;20072;-77
2023/06/05 09:44:28;;;;;;;4.95;3.45;;;17.90;99.90;;;;;;5033370;28;20063;-77
2023/06/05 09:46:55;;;;;;;4.90;3.70;;;17.90;99.90;;;;;;5033312;28;20082;-76
2023/06/05 09:49:23;;;;;;;3.30;2.97;;;17.50;99.90;;;;;;5033177;28;20073;-77
2023/06/05 09:51:49;;;;;;;5.15;3.08;;;17.50;99.90;;;;;;5026727;28;20117;-77
2023/06/05 09:54:16;;;;;;;5.47;3.70;;;17.40;99.90;;;;;;5016471;28;20764;-77
2023/06/05 09:56:48;;;;;;;4.35;3.53;;;17.40;99.90;;;;;;5033150;28;20037;-76
2023/06/05 09:59:21;;;;;;;4.45;3.38;;;17.30;99.90;;;;;;5050017;28;20041;-75
2023/06/05 10:01:49;;;;;;;5.40;3.27;;;17.60;99.90;;;;;;5032813;28;20042;-77
2023/06/05 10:04:18;;;;;;;7.53;3.40;;;18.00;99.90;;;;;;5032833;28;20033;-76
2023/06/05 10:06:45;;;;;;;6.15;3.60;;;18.10;99.90;;;;;;5033152;28;20459;-76
2023/06/05 10:09:11;;;;;;;4.22;3.30;;;18.40;99.90;;;;;;5028107;28;20030;-77
2023/06/05 10:11:40;;;;;;;4.20;2.95;;;18.60;99.90;;;;;;5027351;28;20369;-76
2023/06/05 10:14:08;;;;;;;5.15;3.50;;;18.70;99.90;;;;;;5025919;28;20112;-76
2023/06/05 10:16:34;;;;;;;5.25;3.30;;;18.70;99.90;;;;;;5023991;28;20033;-76
2023/06/05 10:19:00;;;;;;;3.85;2.78;;;18.80;99.90;;;;;;5019568;28;20034;-76
2023/06/05 10:21:25;;;;;;;4.13;2.88;;;19.00;99.90;;;;;;5026098;28;20041;-76
2023/06/05 10:23:56;;;;;;;3.00;2.40;;;19.00;99.90;;;;;;5032874;28;20488;-77
2023/06/05 10:27:00;;;;;;;5.28;3.03;;;19.10;99.90;;;;;;5029189;28;20037;-76
2023/06/05 10:30:02;;;;;;;4.65;3.40;;;18.70;99.90;;;;;;5019194;28;20095;-76
2023/06/05 10:32:28;;;;;;;5.72;3.78;;;18.60;99.90;;;;;;5019403;28;20045;-77
2023/06/05 10:35:23;;;;;;;4.15;2.75;;;18.40;99.90;;;;;;5022389;28;20041;-76
2023/06/05 10:38:24;;;;;;;5.32;3.00;;;18.60;99.90;;;;;;5018902;28;20034;-76
2023/06/05 10:40:58;;;;;;;3.67;2.80;;;18.90;99.90;;;;;;5023513;28;20538;-77
2023/06/05 10:43:35;;;;;;;4.80;3.13;;;18.90;99.90;;;;;;5014940;28;20464;-77
2023/06/05 10:46:22;;;;;;;3.65;2.80;;;18.70;99.90;;;;;;5028131;28;20124;-75
2023/06/05 10:49:17;;;;;;;4.53;3.17;;;19.00;99.90;;;;;;5021631;28;20030;-75
2023/06/05 10:51:44;;;;;;;4.50;2.70;;;19.10;99.90;;;;;;5034259;28;20071;-75
2023/06/05 10:54:23;;;;;;;5.13;2.95;;;19.40;99.90;;;;;;5048002;28;20041;-75
2023/06/05 10:56:52;;;;;;;3.70;2.85;;;19.30;99.90;;;;;;5031899;28;20029;-75
2023/06/05 10:59:22;;;;;;;4.15;2.65;;;19.00;99.90;;;;;;5031743;28;20037;-75
2023/06/05 11:02:06;;;;;;;3.70;2.65;;;19.20;99.90;;;;;;5028879;28;20060;-76
2023/06/05 11:04:47;;;;;;;4.93;3.08;;;19.30;99.90;;;;;;5022913;28;20034;-76
2023/06/05 11:07:21;;;;;;;4.32;3.15;;;19.40;99.90;;;;;;5029736;28;20042;-76
2023/06/05 11:10:05;;;;;;;4.32;2.70;;;19.30;99.90;;;;;;5029826;28;20531;-74
2023/06/05 11:12:42;;;;;;;4.00;2.70;;;19.50;99.90;;;;;;5029449;28;20067;-75
2023/06/05 11:15:12;;;;;;;3.85;2.50;;;19.50;99.90;;;;;;5029760;28;20049;-76
2023/06/05 11:17:39;;;;;;;6.40;2.60;;;19.70;99.90;;;;;;5029977;28;20061;-76
2023/06/05 11:20:12;;;;;;;4.65;2.55;;;19.70;99.90;;;;;;5029537;28;20580;-75
2023/06/05 11:22:52;;;;;;;4.78;2.70;;;19.90;99.90;;;;;;5034383;28;20041;-75
2023/06/05 11:25:20;;;;;;;3.67;2.55;;;20.10;99.90;;;;;;5029186;28;20083;-74
2023/06/05 11:27:48;;;;;;;3.75;2.65;;;20.40;99.90;;;;;;5031864;28;20056;-75
2023/06/05 11:30:15;;;;;;;3.17;2.35;;;20.10;99.90;;;;;;5029061;28;20029;-75
2023/06/05 11:32:41;;;;;;;5.68;2.55;;;20.30;99.90;;;;;;5031083;28;20061;-74
2023/06/05 11:35:11;;;;;;;3.30;2.60;;;20.60;99.90;;;;;;5031388;28;20068;-74
2023/06/05 11:37:38;;;;;;;3.50;2.42;;;20.80;99.90;;;;;;5048004;28;20516;-75
2023/06/05 11:40:08;;;;;;;4.53;2.33;;;20.90;99.90;;;;;;5031677;28;20048;-76
2023/06/05 11:42:34;;;;;;;4.25;2.30;;;21.00;99.90;;;;;;5030839;28;20057;-76
2023/06/05 11:45:00;;;;;;;3.72;2.53;;;21.30;99.90;;;;;;5040908;28;20073;-75
2023/06/05 11:47:30;;;;;;;4.97;2.30;;;21.50;99.90;;;;;;5029619;28;20404;-74
2023/06/05 11:50:12;;;;;;;4.15;2.30;;;21.80;99.90;;;;;;5030168;28;20489;-75
2023/06/05 11:52:39;;;;;;;2.85;2.30;;;22.10;99.90;;;;;;5030062;28;20121;-76
2023/06/05 11:55:19;;;;;;;3.88;2.15;;;22.20;99.90;;;;;;5030928;28;20049;-76
2023/06/05 11:57:49;;;;;;;3.22;2.17;;;22.40;99.90;;;;;;5030204;28;20076;-75
2023/06/05 12:00:16;;;;;;;7.47;2.55;;;22.20;99.90;;;;;;5030630;28;20049;-75
2023/06/05 12:02:42;;;;;;;3.78;2.50;;;22.00;99.90;;;;;;5045721;28;20064;-74
2023/06/05 12:05:09;;;;;;;3.97;2.53;;;22.20;99.90;;;;;;5046091;28;20554;-76
2023/06/05 12:07:37;;;;;;;3.38;2.75;;;22.00;99.90;;;;;;5030872;28;20055;-74
2023/06/05 12:10:07;;;;;;;2.63;2.08;;;21.30;99.90;;;;;;5030026;28;20080;-75
2023/06/05 12:12:34;;;;;;;2.88;2.28;;;21.20;99.90;;;;;;5047319;28;20053;-74
2023/06/05 12:15:19;;;;;;;3.25;2.33;;;21.40;99.90;;;;;;5026062;28;20128;-75
2023/06/05 12:17:50;;;;;;;3.55;2.40;;;21.50;99.90;;;;;;5021463;28;20065;-75
2023/06/05 12:20:16;;;;;;;3.60;2.65;;;21.20;99.90;;;;;;5040786;28;20091;-75
2023/06/05 12:22:42;;;;;;;3.65;2.10;;;20.90;99.90;;;;;;5021731;28;20030;-75
2023/06/05 12:25:23;;;;;;;4.15;2.60;;;21.20;99.90;;;;;;5039997;28;20034;-74
2023/06/05 12:27:49;;;;;;;4.05;2.42;;;21.30;99.90;;;;;;5018202;28;20418;-77
2023/06/05 12:30:16;;;;;;;6.40;2.70;;;21.60;99.90;;;;;;5026231;28;20056;-76
2023/06/05 12:32:45;;;;;;;4.93;3.05;;;21.60;99.90;;;;;;5025114;28;20059;-75
2023/06/05 12:35:21;;;;;;;3.70;2.85;;;21.80;99.90;;;;;;5039642;28;20084;-74
2023/06/05 12:37:48;;;;;;;4.10;2.53;;;21.60;99.90;;;;;;5045797;28;20578;-74
2023/06/05 12:40:17;;;;;;;3.45;2.35;;;21.40;99.90;;;;;;5014680;28;20046;-75
2023/06/05 12:42:43;;;;;;;5.50;2.47;;;21.90;99.90;;;;;;5028851;28;20564;-76
2023/06/05 12:45:09;;;;;;;4.20;2.30;;;22.30;99.90;;;;;;5045267;28;20112;-75
2023/06/05 12:47:36;;;;;;;3.58;2.28;;;22.60;99.90;;;;;;5044633;28;20033;-75
2023/06/05 12:50:07;;;;;;;3.10;2.50;;;22.40;99.90;;;;;;5027737;28;20037;-74
2023/06/05 12:52:33;;;;;;;3.63;2.22;;;22.60;99.90;;;;;;5020236;28;20120;-75